QFA1M WIMM-YSSY
Flight info
| Callsign | QFA1M |
|---|---|
| Flight time | N/A |
| Altitude | 34000 |
| Route | MIBEL L762 ASUNA/N0504F350 R469 BOBAG P501 ANITO B470 PKP/N0497F370 L511 SBR M766 BLI M635 ATMAP A576 TATUK/N0487F390 A576 PKS/N0442F190 W440 AKMIR W113 ODALE |
| Aircraft | A35K/H-SDE2E3GHIJ3J4J5LM1ORWXY/LB1D1 |
Departure
| Time | 2026-04-27 01:51 |
|---|---|
| Airport | Kualanamu International Airport (WIMM) |
Arrival
| Time | N/A |
|---|---|
| Airport | Sydney Kingsford Smith International Airport (YSSY) |
| Time | Latitude | Longitude | Altitude | Speed | Heading |
|---|---|---|---|---|---|
| 2026-04-27 01:23 | 3.63777 | 98.87968 | 39 ft | 0 kts | 225° |
| 2026-04-27 01:39 | 3.63787 | 98.87977 | 39 ft | 3 kts | 225° |
| 2026-04-27 01:39 | 3.63799 | 98.87994 | 36 ft | 3 kts | 257° |
| 2026-04-27 01:40 | 3.63800 | 98.88014 | 35 ft | 3 kts | 294° |
| 2026-04-27 01:40 | 3.63792 | 98.88026 | 36 ft | 0 kts | 316° |
| 2026-04-27 01:44 | 3.63794 | 98.88025 | 36 ft | 0 kts | 316° |
| 2026-04-27 01:44 | 3.63826 | 98.87999 | 23 ft | 11 kts | 323° |
| 2026-04-27 01:44 | 3.63899 | 98.87972 | 39 ft | 12 kts | 4° |
| 2026-04-27 01:45 | 3.63973 | 98.88016 | 39 ft | 13 kts | 42° |
| 2026-04-27 01:45 | 3.64043 | 98.88083 | 39 ft | 15 kts | 44° |
| 2026-04-27 01:45 | 3.64119 | 98.88158 | 39 ft | 15 kts | 44° |
| 2026-04-27 01:45 | 3.64186 | 98.88198 | 39 ft | 10 kts | 357° |
| 2026-04-27 01:46 | 3.64249 | 98.88158 | 39 ft | 12 kts | 316° |
| 2026-04-27 01:46 | 3.64313 | 98.88097 | 39 ft | 14 kts | 315° |
| 2026-04-27 01:46 | 3.64383 | 98.88026 | 39 ft | 14 kts | 315° |
| 2026-04-27 01:46 | 3.64438 | 98.87985 | 38 ft | 9 kts | 348° |
| 2026-04-27 01:47 | 3.64490 | 98.88016 | 39 ft | 10 kts | 40° |
| 2026-04-27 01:47 | 3.64543 | 98.88065 | 39 ft | 11 kts | 44° |
| 2026-04-27 01:47 | 3.64603 | 98.88123 | 39 ft | 13 kts | 45° |
| 2026-04-27 01:47 | 3.64670 | 98.88190 | 38 ft | 15 kts | 45° |
| 2026-04-27 01:48 | 3.64742 | 98.88261 | 38 ft | 14 kts | 45° |
| 2026-04-27 01:48 | 3.64807 | 98.88322 | 38 ft | 12 kts | 32° |
| 2026-04-27 01:48 | 3.64890 | 98.88318 | 37 ft | 11 kts | 327° |
| 2026-04-27 01:48 | 3.64937 | 98.88270 | 36 ft | 11 kts | 307° |
| 2026-04-27 01:49 | 3.64944 | 98.88202 | 38 ft | 9 kts | 243° |
| 2026-04-27 01:49 | 3.64904 | 98.88165 | 38 ft | 0 kts | 220° |
| 2026-04-27 01:50 | 3.64830 | 98.88100 | 38 ft | 43 kts | 222° |
| 2026-04-27 01:50 | 3.64461 | 98.87732 | 38 ft | 105 kts | 225° |
| 2026-04-27 01:50 | 3.63803 | 98.87074 | 39 ft | 160 kts | 225° |
| 2026-04-27 01:50 | 3.63008 | 98.86233 | 560 ft | 162 kts | 229° |
| 2026-04-27 01:51 | 3.62277 | 98.85385 | 1043 ft | 167 kts | 226° |
| 2026-04-27 01:51 | 3.61471 | 98.84500 | 1358 ft | 179 kts | 223° |
| 2026-04-27 01:51 | 3.60571 | 98.83564 | 1578 ft | 194 kts | 222° |
| 2026-04-27 01:51 | 3.59547 | 98.82632 | 1892 ft | 201 kts | 211° |
| 2026-04-27 01:52 | 3.58204 | 98.82112 | 2052 ft | 217 kts | 185° |
| 2026-04-27 01:52 | 3.56643 | 98.82301 | 2125 ft | 239 kts | 157° |
| 2026-04-27 01:52 | 3.55217 | 98.83237 | 2287 ft | 254 kts | 133° |
| 2026-04-27 01:52 | 3.53988 | 98.84476 | 3140 ft | 247 kts | 135° |
| 2026-04-27 01:53 | 3.52785 | 98.85682 | 3897 ft | 243 kts | 135° |
| 2026-04-27 01:53 | 3.51590 | 98.86876 | 4450 ft | 248 kts | 134° |
| 2026-04-27 01:53 | 3.50326 | 98.88138 | 4706 ft | 264 kts | 134° |
| 2026-04-27 01:53 | 3.48989 | 98.89454 | 5163 ft | 272 kts | 135° |
| 2026-04-27 01:54 | 3.47576 | 98.90690 | 5914 ft | 267 kts | 138° |
| 2026-04-27 01:54 | 3.46178 | 98.91897 | 6499 ft | 271 kts | 137° |
| 2026-04-27 01:54 | 3.44738 | 98.93146 | 7006 ft | 275 kts | 137° |
| 2026-04-27 01:54 | 3.43276 | 98.94407 | 7574 ft | 277 kts | 138° |
| 2026-04-27 01:55 | 3.41825 | 98.95652 | 8139 ft | 278 kts | 138° |
| 2026-04-27 01:55 | 3.40347 | 98.96916 | 8700 ft | 281 kts | 137° |
| 2026-04-27 01:55 | 3.38850 | 98.98195 | 9279 ft | 284 kts | 137° |
| 2026-04-27 01:55 | 3.37346 | 98.99479 | 9862 ft | 285 kts | 137° |
| 2026-04-27 01:56 | 3.34227 | 99.02146 | 10511 ft | 306 kts | 137° |
| 2026-04-27 01:56 | 3.32590 | 99.03544 | 10742 ft | 320 kts | 137° |
| 2026-04-27 01:56 | 3.30861 | 99.05019 | 10977 ft | 332 kts | 138° |
| 2026-04-27 01:57 | 3.29677 | 99.06030 | 11115 ft | 340 kts | 138° |
| 2026-04-27 01:57 | 3.27844 | 99.07594 | 11343 ft | 352 kts | 138° |
| 2026-04-27 01:57 | 3.25316 | 99.09751 | 11594 ft | 366 kts | 138° |
| 2026-04-27 01:57 | 3.23351 | 99.11427 | 11805 ft | 375 kts | 138° |
| 2026-04-27 01:58 | 3.22024 | 99.12559 | 11960 ft | 380 kts | 138° |
| 2026-04-27 01:58 | 3.19991 | 99.14292 | 12299 ft | 384 kts | 138° |
| 2026-04-27 01:58 | 3.17947 | 99.16035 | 12689 ft | 387 kts | 138° |
| 2026-04-27 01:58 | 3.15880 | 99.17797 | 13076 ft | 390 kts | 138° |
| 2026-04-27 01:59 | 3.13806 | 99.19567 | 13465 ft | 392 kts | 138° |
| 2026-04-27 01:59 | 3.11718 | 99.21347 | 13821 ft | 395 kts | 138° |
| 2026-04-27 01:59 | 3.09644 | 99.23117 | 14147 ft | 397 kts | 138° |
| 2026-04-27 01:59 | 3.07498 | 99.24873 | 14483 ft | 399 kts | 141° |
| 2026-04-27 02:00 | 3.05236 | 99.26513 | 14823 ft | 402 kts | 143° |
| 2026-04-27 02:00 | 3.02965 | 99.28112 | 15169 ft | 404 kts | 143° |
| 2026-04-27 02:00 | 3.00661 | 99.29731 | 15523 ft | 406 kts | 143° |
| 2026-04-27 02:00 | 2.98341 | 99.31365 | 15872 ft | 408 kts | 143° |
| 2026-04-27 02:01 | 2.96008 | 99.33009 | 16215 ft | 410 kts | 143° |
| 2026-04-27 02:01 | 2.93693 | 99.34641 | 16541 ft | 412 kts | 143° |
| 2026-04-27 02:01 | 2.91336 | 99.36302 | 16880 ft | 415 kts | 143° |
| 2026-04-27 02:01 | 2.88966 | 99.37974 | 17214 ft | 417 kts | 143° |
| 2026-04-27 02:02 | 2.86584 | 99.39654 | 17551 ft | 419 kts | 143° |
| 2026-04-27 02:02 | 2.84225 | 99.41317 | 17877 ft | 421 kts | 143° |
| 2026-04-27 02:02 | 2.81821 | 99.43013 | 18186 ft | 423 kts | 143° |
| 2026-04-27 02:02 | 2.79404 | 99.44717 | 18446 ft | 425 kts | 143° |
| 2026-04-27 02:03 | 2.76986 | 99.46423 | 18729 ft | 427 kts | 143° |
| 2026-04-27 02:03 | 2.74546 | 99.48144 | 18978 ft | 429 kts | 143° |
| 2026-04-27 02:03 | 2.72134 | 99.49845 | 19227 ft | 430 kts | 143° |
| 2026-04-27 02:03 | 2.69676 | 99.51578 | 19494 ft | 432 kts | 143° |
| 2026-04-27 02:04 | 2.67245 | 99.53362 | 19764 ft | 434 kts | 140° |
| 2026-04-27 02:04 | 2.65036 | 99.55436 | 20021 ft | 433 kts | 130° |
| 2026-04-27 02:04 | 2.63211 | 99.57832 | 20275 ft | 434 kts | 121° |
| 2026-04-27 02:04 | 2.61817 | 99.60512 | 20509 ft | 435 kts | 111° |
| 2026-04-27 02:05 | 2.60855 | 99.63346 | 20758 ft | 436 kts | 105° |
| 2026-04-27 02:05 | 2.60034 | 99.66270 | 21011 ft | 437 kts | 105° |
| 2026-04-27 02:05 | 2.59223 | 99.69209 | 21251 ft | 439 kts | 105° |
| 2026-04-27 02:05 | 2.58403 | 99.72162 | 21494 ft | 441 kts | 105° |
| 2026-04-27 02:06 | 2.57574 | 99.75128 | 21742 ft | 443 kts | 105° |
| 2026-04-27 02:06 | 2.56740 | 99.78102 | 21993 ft | 444 kts | 105° |
| 2026-04-27 02:06 | 2.55902 | 99.81084 | 22205 ft | 446 kts | 105° |
| 2026-04-27 02:06 | 2.55058 | 99.84083 | 22455 ft | 448 kts | 105° |
| 2026-04-27 02:07 | 2.54221 | 99.87056 | 22649 ft | 451 kts | 105° |
| 2026-04-27 02:07 | 2.53366 | 99.90091 | 22873 ft | 452 kts | 105° |
| 2026-04-27 02:07 | 2.52512 | 99.93123 | 23108 ft | 454 kts | 105° |
| 2026-04-27 02:07 | 2.51651 | 99.96179 | 23329 ft | 456 kts | 105° |
| 2026-04-27 02:08 | 2.50789 | 99.99238 | 23534 ft | 457 kts | 105° |
| 2026-04-27 02:08 | 2.49932 | 100.02276 | 23725 ft | 459 kts | 105° |
| 2026-04-27 02:08 | 2.49063 | 100.05360 | 23893 ft | 460 kts | 105° |
| 2026-04-27 02:08 | 2.48191 | 100.08453 | 24085 ft | 462 kts | 105° |
| 2026-04-27 02:09 | 2.47315 | 100.11560 | 24267 ft | 463 kts | 105° |
| 2026-04-27 02:09 | 2.46451 | 100.14624 | 24433 ft | 464 kts | 105° |
| 2026-04-27 02:09 | 2.45568 | 100.17757 | 24631 ft | 466 kts | 105° |
| 2026-04-27 02:09 | 2.44686 | 100.20882 | 24813 ft | 467 kts | 105° |
| 2026-04-27 02:10 | 2.43812 | 100.23981 | 24977 ft | 468 kts | 105° |
| 2026-04-27 02:10 | 2.42923 | 100.27132 | 25148 ft | 469 kts | 105° |
| 2026-04-27 02:10 | 2.42037 | 100.30274 | 25348 ft | 470 kts | 105° |
| 2026-04-27 02:10 | 2.41144 | 100.33440 | 25505 ft | 472 kts | 105° |
| 2026-04-27 02:11 | 2.40249 | 100.36612 | 25675 ft | 473 kts | 105° |
| 2026-04-27 02:11 | 2.39354 | 100.39783 | 25865 ft | 474 kts | 105° |
| 2026-04-27 02:11 | 2.38467 | 100.42926 | 26012 ft | 476 kts | 105° |
| 2026-04-27 02:11 | 2.37564 | 100.46126 | 26182 ft | 477 kts | 105° |
| 2026-04-27 02:12 | 2.36658 | 100.49331 | 26383 ft | 478 kts | 105° |
| 2026-04-27 02:12 | 2.35609 | 100.52504 | 26525 ft | 481 kts | 111° |
| 2026-04-27 02:12 | 2.34163 | 100.55482 | 26658 ft | 483 kts | 118° |
| 2026-04-27 02:12 | 2.32461 | 100.58389 | 26843 ft | 484 kts | 120° |
| 2026-04-27 02:13 | 2.30721 | 100.61292 | 27071 ft | 484 kts | 120° |
| 2026-04-27 02:13 | 2.29003 | 100.64159 | 27179 ft | 486 kts | 120° |
| 2026-04-27 02:13 | 2.27261 | 100.67075 | 27295 ft | 489 kts | 120° |
| 2026-04-27 02:13 | 2.25510 | 100.70007 | 27488 ft | 489 kts | 120° |
| 2026-04-27 02:14 | 2.23760 | 100.72940 | 27694 ft | 489 kts | 120° |
| 2026-04-27 02:14 | 2.22018 | 100.75863 | 27862 ft | 490 kts | 120° |
| 2026-04-27 02:14 | 2.20296 | 100.78753 | 27991 ft | 491 kts | 120° |
| 2026-04-27 02:14 | 2.18538 | 100.81701 | 28083 ft | 494 kts | 120° |
| 2026-04-27 02:15 | 2.16779 | 100.84654 | 28276 ft | 494 kts | 120° |
| 2026-04-27 02:15 | 2.15018 | 100.87608 | 28452 ft | 494 kts | 120° |
| 2026-04-27 02:15 | 2.13252 | 100.90572 | 28555 ft | 496 kts | 120° |
| 2026-04-27 02:15 | 2.11499 | 100.93512 | 28662 ft | 498 kts | 120° |
| 2026-04-27 02:16 | 2.09722 | 100.96493 | 28800 ft | 499 kts | 120° |
| 2026-04-27 02:16 | 2.07947 | 100.99469 | 28948 ft | 499 kts | 120° |
| 2026-04-27 02:16 | 2.06164 | 101.02461 | 29135 ft | 499 kts | 120° |
| 2026-04-27 02:16 | 2.04376 | 101.05460 | 29192 ft | 501 kts | 120° |
| 2026-04-27 02:17 | 2.00798 | 101.11462 | 29454 ft | 503 kts | 120° |
| 2026-04-27 02:17 | 1.99002 | 101.14473 | 29610 ft | 504 kts | 120° |
| 2026-04-27 02:17 | 1.97207 | 101.17485 | 29733 ft | 505 kts | 120° |
| 2026-04-27 02:18 | 1.95407 | 101.20505 | 29887 ft | 505 kts | 120° |
| 2026-04-27 02:18 | 1.93620 | 101.23500 | 29998 ft | 506 kts | 120° |
| 2026-04-27 02:18 | 1.91814 | 101.26527 | 30237 ft | 504 kts | 120° |
| 2026-04-27 02:18 | 1.90025 | 101.29524 | 30544 ft | 500 kts | 120° |
| 2026-04-27 02:19 | 1.88260 | 101.32484 | 30714 ft | 501 kts | 120° |
| 2026-04-27 02:19 | 1.86469 | 101.35487 | 30872 ft | 501 kts | 120° |
| 2026-04-27 02:19 | 1.84689 | 101.38471 | 31185 ft | 498 kts | 120° |
| 2026-04-27 02:19 | 1.82916 | 101.41444 | 31451 ft | 496 kts | 120° |
| 2026-04-27 02:20 | 1.81146 | 101.44411 | 31684 ft | 495 kts | 120° |
| 2026-04-27 02:20 | 1.79405 | 101.47329 | 31906 ft | 494 kts | 120° |
| 2026-04-27 02:20 | 1.77643 | 101.50283 | 32133 ft | 493 kts | 120° |
| 2026-04-27 02:20 | 1.75885 | 101.53228 | 32382 ft | 492 kts | 120° |
| 2026-04-27 02:21 | 1.74132 | 101.56167 | 32617 ft | 491 kts | 120° |
| 2026-04-27 02:21 | 1.72404 | 101.59063 | 32855 ft | 490 kts | 120° |
| 2026-04-27 02:21 | 1.70661 | 101.61985 | 33101 ft | 489 kts | 120° |
| 2026-04-27 02:21 | 1.68916 | 101.64909 | 33349 ft | 488 kts | 120° |
| 2026-04-27 02:22 | 1.67179 | 101.67819 | 33596 ft | 487 kts | 120° |
| 2026-04-27 02:22 | 1.65444 | 101.70726 | 33843 ft | 486 kts | 120° |
| 2026-04-27 02:22 | 1.61955 | 101.76573 | 33892 ft | 490 kts | 120° |
| 2026-04-27 02:23 | 1.58471 | 101.82409 | 33888 ft | 491 kts | 120° |
| 2026-04-27 02:23 | 1.54972 | 101.88270 | 33892 ft | 491 kts | 120° |
| 2026-04-27 02:24 | 1.51489 | 101.94104 | 33895 ft | 491 kts | 120° |
| 2026-04-27 02:24 | 1.47983 | 101.99979 | 33891 ft | 490 kts | 120° |
| 2026-04-27 02:25 | 1.44510 | 102.05794 | 33887 ft | 489 kts | 120° |
| 2026-04-27 02:25 | 1.41019 | 102.11644 | 33890 ft | 489 kts | 120° |
| 2026-04-27 02:26 | 1.38106 | 102.17791 | 33890 ft | 489 kts | 112° |
| 2026-04-27 02:26 | 1.35644 | 102.24089 | 33891 ft | 489 kts | 110° |
| 2026-04-27 02:27 | 1.33222 | 102.30437 | 33882 ft | 489 kts | 110° |
| 2026-04-27 02:27 | 1.30764 | 102.36806 | 33885 ft | 489 kts | 111° |
| 2026-04-27 02:28 | 1.28307 | 102.43115 | 33884 ft | 489 kts | 111° |
| 2026-04-27 02:28 | 1.25824 | 102.49473 | 33881 ft | 490 kts | 111° |
| 2026-04-27 02:29 | 1.23354 | 102.55801 | 33884 ft | 490 kts | 111° |
| 2026-04-27 02:29 | 1.20887 | 102.62120 | 33883 ft | 490 kts | 111° |
| 2026-04-27 02:30 | 1.18403 | 102.68486 | 33882 ft | 490 kts | 111° |
| 2026-04-27 02:30 | 1.15941 | 102.74797 | 33880 ft | 490 kts | 111° |
| 2026-04-27 02:31 | 1.13464 | 102.81145 | 33882 ft | 490 kts | 111° |
| 2026-04-27 02:31 | 1.10981 | 102.87505 | 33882 ft | 490 kts | 111° |
| 2026-04-27 02:32 | 1.08506 | 102.93845 | 33882 ft | 488 kts | 111° |
| 2026-04-27 02:32 | 1.06051 | 103.00133 | 33883 ft | 488 kts | 111° |
| 2026-04-27 02:33 | 1.03581 | 103.06462 | 33878 ft | 488 kts | 111° |
| 2026-04-27 02:33 | 1.01202 | 103.12826 | 33883 ft | 488 kts | 106° |
| 2026-04-27 02:34 | 1.00478 | 103.16143 | 34014 ft | 488 kts | 97° |
| 2026-04-27 02:34 | 1.00271 | 103.19519 | 34329 ft | 486 kts | 89° |
| 2026-04-27 02:34 | 1.00510 | 103.22839 | 34674 ft | 483 kts | 84° |
| 2026-04-27 02:34 | 1.00893 | 103.26187 | 34851 ft | 485 kts | 83° |
| 2026-04-27 02:35 | 1.01818 | 103.32916 | 34882 ft | 488 kts | 82° |
| 2026-04-27 02:35 | 1.02762 | 103.39610 | 34883 ft | 488 kts | 84° |
| 2026-04-27 02:36 | 1.02640 | 103.46364 | 34884 ft | 487 kts | 100° |
| 2026-04-27 02:36 | 1.00439 | 103.52692 | 34883 ft | 487 kts | 118° |
| 2026-04-27 02:37 | 0.96300 | 103.58085 | 34883 ft | 489 kts | 131° |
| 2026-04-27 02:37 | 0.91582 | 103.62974 | 34883 ft | 491 kts | 133° |
| 2026-04-27 02:38 | 0.86775 | 103.67842 | 34889 ft | 491 kts | 133° |
| 2026-04-27 02:38 | 0.82021 | 103.72705 | 34889 ft | 491 kts | 133° |
| 2026-04-27 02:39 | 0.77263 | 103.77613 | 34886 ft | 491 kts | 133° |
| 2026-04-27 02:39 | 0.72513 | 103.82524 | 34892 ft | 490 kts | 133° |
| 2026-04-27 02:40 | 0.67796 | 103.87398 | 34892 ft | 490 kts | 133° |
| 2026-04-27 02:40 | 0.63041 | 103.92311 | 34892 ft | 491 kts | 133° |
| 2026-04-27 02:41 | 0.58308 | 103.97201 | 34899 ft | 491 kts | 133° |
| 2026-04-27 02:41 | 0.53553 | 104.02118 | 34898 ft | 491 kts | 133° |
| 2026-04-27 02:42 | 0.48792 | 104.07032 | 34897 ft | 491 kts | 133° |
| 2026-04-27 02:42 | 0.44054 | 104.11918 | 34903 ft | 491 kts | 133° |
| 2026-04-27 02:43 | 0.39278 | 104.16847 | 34901 ft | 491 kts | 133° |
| 2026-04-27 02:43 | 0.34542 | 104.21735 | 34900 ft | 491 kts | 133° |
| 2026-04-27 02:44 | 0.29785 | 104.26656 | 34903 ft | 492 kts | 133° |
| 2026-04-27 02:44 | 0.25052 | 104.31539 | 34904 ft | 492 kts | 133° |
| 2026-04-27 02:45 | 0.20296 | 104.36446 | 34904 ft | 492 kts | 133° |
| 2026-04-27 02:45 | 0.15523 | 104.41373 | 34903 ft | 492 kts | 133° |
| 2026-04-27 02:46 | 0.11566 | 104.45459 | 34901 ft | 492 kts | 133° |
| 2026-04-27 02:46 | 0.06800 | 104.50380 | 34900 ft | 492 kts | 133° |
| 2026-04-27 02:47 | 0.02064 | 104.55270 | 34900 ft | 492 kts | 133° |
| 2026-04-27 02:47 | -0.02677 | 104.60165 | 34906 ft | 493 kts | 133° |
| 2026-04-27 02:48 | -0.07456 | 104.65100 | 34903 ft | 493 kts | 133° |
| 2026-04-27 02:48 | -0.12233 | 104.70032 | 34904 ft | 493 kts | 133° |
| 2026-04-27 02:49 | -0.17011 | 104.74965 | 34902 ft | 493 kts | 133° |
| 2026-04-27 02:49 | -0.21768 | 104.79877 | 34902 ft | 493 kts | 133° |
| 2026-04-27 02:50 | -0.26553 | 104.84806 | 34903 ft | 493 kts | 134° |
| 2026-04-27 02:50 | -0.31900 | 104.89072 | 34906 ft | 495 kts | 143° |
| 2026-04-27 02:51 | -0.37591 | 104.92983 | 34904 ft | 496 kts | 144° |
| 2026-04-27 02:51 | -0.43323 | 104.96828 | 34900 ft | 495 kts | 144° |
| 2026-04-27 02:52 | -0.49039 | 105.00672 | 34897 ft | 495 kts | 144° |
| 2026-04-27 02:52 | -0.54716 | 105.04507 | 34897 ft | 495 kts | 144° |
| 2026-04-27 02:53 | -0.60433 | 105.08376 | 34900 ft | 494 kts | 144° |
| 2026-04-27 02:53 | -0.66109 | 105.12218 | 34899 ft | 494 kts | 144° |
| 2026-04-27 02:54 | -0.71804 | 105.16072 | 34896 ft | 495 kts | 144° |
| 2026-04-27 02:54 | -0.77524 | 105.19943 | 34899 ft | 496 kts | 144° |
| 2026-04-27 02:55 | -0.83215 | 105.23794 | 34897 ft | 497 kts | 144° |
| 2026-04-27 02:55 | -0.88951 | 105.27676 | 34897 ft | 497 kts | 144° |
| 2026-04-27 02:56 | -0.94657 | 105.31538 | 34898 ft | 498 kts | 144° |
| 2026-04-27 02:56 | -1.00400 | 105.35425 | 34897 ft | 498 kts | 144° |
| 2026-04-27 02:57 | -1.06146 | 105.39314 | 34898 ft | 498 kts | 144° |
| 2026-04-27 02:57 | -1.11864 | 105.43185 | 34897 ft | 498 kts | 144° |
| 2026-04-27 02:58 | -1.17619 | 105.47080 | 34897 ft | 499 kts | 144° |
| 2026-04-27 02:58 | -1.23346 | 105.50957 | 34894 ft | 499 kts | 144° |
| 2026-04-27 02:59 | -1.29107 | 105.54857 | 34895 ft | 499 kts | 144° |
| 2026-04-27 02:59 | -1.34867 | 105.58756 | 34898 ft | 499 kts | 144° |
| 2026-04-27 03:00 | -1.40588 | 105.62630 | 34900 ft | 499 kts | 144° |
| 2026-04-27 03:00 | -1.46343 | 105.66528 | 34900 ft | 499 kts | 144° |
| 2026-04-27 03:01 | -1.52107 | 105.70431 | 34897 ft | 499 kts | 145° |
| 2026-04-27 03:01 | -1.57816 | 105.74296 | 34897 ft | 499 kts | 145° |
| 2026-04-27 03:02 | -1.63558 | 105.78185 | 34897 ft | 499 kts | 145° |
| 2026-04-27 03:02 | -1.69316 | 105.82085 | 34897 ft | 499 kts | 145° |
| 2026-04-27 03:03 | -1.77919 | 105.87912 | 34896 ft | 499 kts | 145° |
| 2026-04-27 03:04 | -1.83677 | 105.91812 | 34897 ft | 499 kts | 144° |
| 2026-04-27 03:04 | -1.89405 | 105.95693 | 34894 ft | 499 kts | 144° |
| 2026-04-27 03:05 | -1.95142 | 105.99579 | 34899 ft | 500 kts | 144° |
| 2026-04-27 03:05 | -2.00901 | 106.03480 | 34897 ft | 498 kts | 144° |
| 2026-04-27 03:06 | -2.06619 | 106.07354 | 34903 ft | 498 kts | 144° |
| 2026-04-27 03:06 | -2.12375 | 106.11256 | 34903 ft | 498 kts | 144° |
| 2026-04-27 03:07 | -2.17633 | 106.15623 | 35274 ft | 491 kts | 130° |
| 2026-04-27 03:07 | -2.19860 | 106.18224 | 35636 ft | 488 kts | 128° |
| 2026-04-27 03:07 | -2.21996 | 106.20860 | 35882 ft | 488 kts | 127° |
| 2026-04-27 03:07 | -2.24094 | 106.23528 | 36112 ft | 487 kts | 127° |
| 2026-04-27 03:08 | -2.26149 | 106.26178 | 36366 ft | 486 kts | 127° |
| 2026-04-27 03:08 | -2.28223 | 106.28859 | 36623 ft | 485 kts | 127° |
| 2026-04-27 03:08 | -2.30295 | 106.31534 | 36843 ft | 485 kts | 127° |
| 2026-04-27 03:09 | -2.34473 | 106.36904 | 36901 ft | 490 kts | 127° |
| 2026-04-27 03:09 | -2.38646 | 106.42245 | 36900 ft | 489 kts | 127° |
| 2026-04-27 03:10 | -2.42845 | 106.47615 | 36900 ft | 489 kts | 127° |
| 2026-04-27 03:10 | -2.47034 | 106.52973 | 36900 ft | 489 kts | 127° |
| 2026-04-27 03:11 | -2.51207 | 106.58313 | 36902 ft | 489 kts | 127° |
| 2026-04-27 03:11 | -2.55402 | 106.63683 | 36900 ft | 489 kts | 127° |
| 2026-04-27 03:12 | -2.59569 | 106.69017 | 36901 ft | 489 kts | 127° |
| 2026-04-27 03:12 | -2.63762 | 106.74384 | 36900 ft | 489 kts | 127° |
| 2026-04-27 03:13 | -2.67939 | 106.79733 | 36900 ft | 489 kts | 127° |
| 2026-04-27 03:13 | -2.72136 | 106.85107 | 36900 ft | 489 kts | 127° |
| 2026-04-27 03:14 | -2.76300 | 106.90440 | 36900 ft | 489 kts | 127° |
| 2026-04-27 03:14 | -2.80489 | 106.95805 | 36900 ft | 489 kts | 127° |
| 2026-04-27 03:15 | -2.84651 | 107.01136 | 36897 ft | 489 kts | 127° |
| 2026-04-27 03:15 | -2.88850 | 107.06517 | 36898 ft | 488 kts | 127° |
| 2026-04-27 03:16 | -2.93010 | 107.11847 | 36898 ft | 488 kts | 127° |
| 2026-04-27 03:16 | -2.97197 | 107.17213 | 36897 ft | 489 kts | 127° |
| 2026-04-27 03:17 | -3.01392 | 107.22590 | 36898 ft | 489 kts | 127° |
| 2026-04-27 03:17 | -3.05567 | 107.27940 | 36897 ft | 489 kts | 127° |
| 2026-04-27 03:18 | -3.09755 | 107.33310 | 36897 ft | 489 kts | 127° |
| 2026-04-27 03:18 | -3.13948 | 107.38686 | 36897 ft | 489 kts | 127° |
| 2026-04-27 03:19 | -3.18136 | 107.44056 | 36898 ft | 488 kts | 127° |
| 2026-04-27 03:19 | -3.22294 | 107.49390 | 36897 ft | 487 kts | 127° |
| 2026-04-27 03:20 | -3.26471 | 107.54750 | 36894 ft | 487 kts | 127° |
| 2026-04-27 03:20 | -3.30622 | 107.60076 | 36895 ft | 487 kts | 127° |
| 2026-04-27 03:21 | -3.34800 | 107.65431 | 36892 ft | 487 kts | 127° |
| 2026-04-27 03:21 | -3.38994 | 107.70736 | 36892 ft | 487 kts | 127° |
| 2026-04-27 03:22 | -3.43212 | 107.76061 | 36893 ft | 488 kts | 127° |
| 2026-04-27 03:22 | -3.47436 | 107.81408 | 36895 ft | 490 kts | 127° |
| 2026-04-27 03:23 | -3.51640 | 107.86737 | 36891 ft | 490 kts | 127° |
| 2026-04-27 03:23 | -3.55878 | 107.92111 | 36892 ft | 490 kts | 127° |
| 2026-04-27 03:24 | -3.60090 | 107.97452 | 36895 ft | 490 kts | 127° |
| 2026-04-27 03:24 | -3.64313 | 108.02810 | 36891 ft | 490 kts | 127° |
| 2026-04-27 03:25 | -3.68547 | 108.08180 | 36893 ft | 490 kts | 127° |
| 2026-04-27 03:25 | -3.72778 | 108.13547 | 36892 ft | 490 kts | 127° |
| 2026-04-27 03:26 | -3.76983 | 108.18884 | 36891 ft | 490 kts | 127° |
| 2026-04-27 03:26 | -3.81214 | 108.24254 | 36892 ft | 490 kts | 127° |
| 2026-04-27 03:27 | -3.85442 | 108.29622 | 36889 ft | 490 kts | 127° |
| 2026-04-27 03:27 | -3.89639 | 108.34951 | 36889 ft | 490 kts | 127° |
| 2026-04-27 03:28 | -3.93873 | 108.40327 | 36891 ft | 490 kts | 127° |
| 2026-04-27 03:28 | -3.98079 | 108.45670 | 36893 ft | 490 kts | 127° |
| 2026-04-27 03:29 | -4.02312 | 108.51047 | 36892 ft | 490 kts | 127° |
| 2026-04-27 03:29 | -4.06514 | 108.56387 | 36892 ft | 490 kts | 127° |
| 2026-04-27 03:30 | -4.10746 | 108.61764 | 36891 ft | 490 kts | 127° |
| 2026-04-27 03:30 | -4.14944 | 108.67100 | 36892 ft | 490 kts | 127° |
| 2026-04-27 03:31 | -4.19166 | 108.72468 | 36890 ft | 490 kts | 127° |
| 2026-04-27 03:31 | -4.23392 | 108.77842 | 36889 ft | 490 kts | 127° |
| 2026-04-27 03:32 | -4.27585 | 108.83175 | 36889 ft | 488 kts | 127° |
| 2026-04-27 03:32 | -4.31082 | 108.87624 | 36890 ft | 487 kts | 127° |
| 2026-04-27 03:33 | -4.35290 | 108.92976 | 36890 ft | 488 kts | 127° |
| 2026-04-27 03:33 | -4.39476 | 108.98305 | 36889 ft | 489 kts | 127° |
| 2026-04-27 03:34 | -4.43693 | 109.03672 | 36887 ft | 489 kts | 127° |
| 2026-04-27 03:34 | -4.47894 | 109.09020 | 36887 ft | 489 kts | 127° |
| 2026-04-27 03:35 | -4.52118 | 109.14397 | 36888 ft | 490 kts | 126° |
| 2026-04-27 03:35 | -4.56314 | 109.19743 | 36886 ft | 491 kts | 126° |
| 2026-04-27 03:36 | -4.60536 | 109.25122 | 36889 ft | 491 kts | 126° |
| 2026-04-27 03:36 | -4.64739 | 109.30477 | 36889 ft | 491 kts | 126° |
| 2026-04-27 03:37 | -4.68960 | 109.35856 | 36889 ft | 490 kts | 126° |
| 2026-04-27 03:37 | -4.73187 | 109.41243 | 36889 ft | 490 kts | 126° |
| 2026-04-27 03:38 | -4.77378 | 109.46588 | 36885 ft | 490 kts | 126° |
| 2026-04-27 03:38 | -4.81592 | 109.51961 | 36886 ft | 488 kts | 126° |
| 2026-04-27 03:39 | -4.85777 | 109.57300 | 36887 ft | 488 kts | 126° |
| 2026-04-27 03:39 | -4.89986 | 109.62670 | 36887 ft | 488 kts | 126° |
| 2026-04-27 03:40 | -4.94186 | 109.68030 | 36887 ft | 488 kts | 126° |
| 2026-04-27 03:40 | -4.98362 | 109.73361 | 36886 ft | 488 kts | 126° |
| 2026-04-27 03:41 | -5.02562 | 109.78723 | 36886 ft | 488 kts | 127° |
| 2026-04-27 03:41 | -5.06732 | 109.84049 | 36886 ft | 487 kts | 127° |
| 2026-04-27 03:42 | -5.10920 | 109.89397 | 36886 ft | 486 kts | 127° |
| 2026-04-27 03:42 | -5.15104 | 109.94742 | 36887 ft | 486 kts | 127° |
| 2026-04-27 03:43 | -5.19276 | 110.00074 | 36886 ft | 486 kts | 127° |
| 2026-04-27 03:43 | -5.23457 | 110.05418 | 36886 ft | 486 kts | 127° |
| 2026-04-27 03:44 | -5.27618 | 110.10739 | 36886 ft | 486 kts | 127° |
| 2026-04-27 03:44 | -5.31798 | 110.16083 | 36887 ft | 485 kts | 126° |
| 2026-04-27 03:45 | -5.35949 | 110.21394 | 36881 ft | 484 kts | 126° |
| 2026-04-27 03:45 | -5.40085 | 110.26686 | 36881 ft | 484 kts | 126° |
| 2026-04-27 03:46 | -5.44251 | 110.32018 | 36884 ft | 484 kts | 126° |
| 2026-04-27 03:46 | -5.48411 | 110.37344 | 36884 ft | 484 kts | 126° |
| 2026-04-27 03:47 | -5.52572 | 110.42612 | 36884 ft | 484 kts | 127° |
| 2026-04-27 03:47 | -5.56777 | 110.47895 | 36883 ft | 484 kts | 127° |
| 2026-04-27 03:48 | -5.60990 | 110.53198 | 36887 ft | 486 kts | 127° |
| 2026-04-27 03:48 | -5.65179 | 110.58480 | 36886 ft | 486 kts | 127° |
| 2026-04-27 03:49 | -5.69395 | 110.63802 | 36884 ft | 486 kts | 127° |
| 2026-04-27 03:49 | -5.73615 | 110.69131 | 36884 ft | 488 kts | 127° |
| 2026-04-27 03:50 | -5.77828 | 110.74452 | 36884 ft | 489 kts | 127° |
| 2026-04-27 03:50 | -5.82069 | 110.79808 | 36884 ft | 489 kts | 127° |
| 2026-04-27 03:51 | -5.86293 | 110.85146 | 36883 ft | 491 kts | 127° |
| 2026-04-27 03:51 | -5.90559 | 110.90538 | 36884 ft | 492 kts | 127° |
| 2026-04-27 03:52 | -5.94792 | 110.95890 | 36884 ft | 492 kts | 127° |
| 2026-04-27 03:52 | -5.99050 | 111.01274 | 36878 ft | 492 kts | 127° |
| 2026-04-27 03:53 | -6.03314 | 111.06668 | 36878 ft | 492 kts | 127° |
| 2026-04-27 03:53 | -6.07580 | 111.12065 | 36878 ft | 492 kts | 126° |
| 2026-04-27 03:54 | -6.11810 | 111.17419 | 36881 ft | 492 kts | 126° |
| 2026-04-27 03:54 | -6.16073 | 111.22816 | 36881 ft | 492 kts | 126° |
| 2026-04-27 03:55 | -6.20301 | 111.28171 | 36881 ft | 492 kts | 126° |
| 2026-04-27 03:55 | -6.24559 | 111.33565 | 36878 ft | 492 kts | 126° |
| 2026-04-27 03:56 | -6.28824 | 111.38969 | 36878 ft | 492 kts | 126° |
| 2026-04-27 03:56 | -6.33049 | 111.44325 | 36878 ft | 492 kts | 126° |
| 2026-04-27 03:57 | -6.37310 | 111.49728 | 36873 ft | 492 kts | 126° |
| 2026-04-27 03:57 | -6.41565 | 111.55124 | 36876 ft | 491 kts | 126° |
| 2026-04-27 03:58 | -6.45790 | 111.60483 | 36876 ft | 491 kts | 126° |
| 2026-04-27 03:58 | -6.50039 | 111.65876 | 36876 ft | 491 kts | 126° |
| 2026-04-27 03:59 | -6.54292 | 111.71275 | 36873 ft | 491 kts | 126° |
| 2026-04-27 03:59 | -6.58519 | 111.76642 | 36873 ft | 491 kts | 126° |
| 2026-04-27 04:00 | -6.62752 | 111.82018 | 36873 ft | 491 kts | 126° |
| 2026-04-27 04:00 | -6.67002 | 111.87418 | 36873 ft | 491 kts | 126° |
| 2026-04-27 04:01 | -6.71232 | 111.92795 | 36869 ft | 491 kts | 126° |
| 2026-04-27 04:01 | -6.75476 | 111.98190 | 36867 ft | 491 kts | 126° |
| 2026-04-27 04:02 | -6.79705 | 112.03569 | 36864 ft | 491 kts | 126° |
| 2026-04-27 04:02 | -6.83952 | 112.08972 | 36862 ft | 491 kts | 126° |
| 2026-04-27 04:03 | -6.88171 | 112.14340 | 36863 ft | 491 kts | 126° |
| 2026-04-27 04:03 | -6.92422 | 112.19753 | 36862 ft | 491 kts | 126° |
| 2026-04-27 04:04 | -6.96645 | 112.25131 | 36861 ft | 491 kts | 126° |
| 2026-04-27 04:04 | -7.00877 | 112.30521 | 36861 ft | 491 kts | 126° |
| 2026-04-27 04:05 | -7.05096 | 112.35897 | 36856 ft | 492 kts | 126° |
| 2026-04-27 04:05 | -7.09353 | 112.41322 | 36857 ft | 492 kts | 126° |
| 2026-04-27 04:06 | -7.13578 | 112.46709 | 36859 ft | 492 kts | 126° |
| 2026-04-27 04:06 | -7.17806 | 112.52102 | 36857 ft | 492 kts | 126° |
| 2026-04-27 04:07 | -7.24181 | 112.60237 | 36868 ft | 492 kts | 126° |
| 2026-04-27 04:07 | -7.28398 | 112.65621 | 36876 ft | 492 kts | 126° |
| 2026-04-27 04:08 | -7.32642 | 112.71040 | 36884 ft | 492 kts | 126° |
| 2026-04-27 04:08 | -7.36836 | 112.76481 | 36881 ft | 491 kts | 122° |
| 2026-04-27 04:09 | -7.40433 | 112.82334 | 36884 ft | 491 kts | 118° |
| 2026-04-27 04:09 | -7.43862 | 112.88247 | 36881 ft | 490 kts | 118° |
| 2026-04-27 04:10 | -7.47282 | 112.94205 | 36874 ft | 491 kts | 118° |
| 2026-04-27 04:10 | -7.50690 | 113.00129 | 36864 ft | 491 kts | 118° |
| 2026-04-27 04:11 | -7.54133 | 113.06099 | 36856 ft | 491 kts | 118° |
| 2026-04-27 04:11 | -7.57558 | 113.12037 | 36856 ft | 490 kts | 118° |
| 2026-04-27 04:12 | -7.60977 | 113.17964 | 36856 ft | 490 kts | 118° |
| 2026-04-27 04:12 | -7.64414 | 113.23927 | 36854 ft | 490 kts | 118° |
| 2026-04-27 04:13 | -7.67832 | 113.29861 | 36862 ft | 490 kts | 118° |
| 2026-04-27 04:13 | -7.71252 | 113.35800 | 36867 ft | 491 kts | 118° |
| 2026-04-27 04:14 | -7.74685 | 113.41763 | 36867 ft | 491 kts | 118° |
| 2026-04-27 04:14 | -7.78114 | 113.47723 | 36867 ft | 491 kts | 118° |
| 2026-04-27 04:15 | -7.81529 | 113.53659 | 36881 ft | 491 kts | 118° |
| 2026-04-27 04:15 | -7.84967 | 113.59639 | 36880 ft | 491 kts | 118° |
| 2026-04-27 04:16 | -7.88386 | 113.65588 | 36880 ft | 491 kts | 118° |
| 2026-04-27 04:16 | -7.91790 | 113.71515 | 36881 ft | 491 kts | 118° |
| 2026-04-27 04:17 | -7.95218 | 113.77484 | 36895 ft | 491 kts | 118° |
| 2026-04-27 04:17 | -7.98657 | 113.83476 | 36891 ft | 492 kts | 118° |
| 2026-04-27 04:18 | -8.02078 | 113.89439 | 36895 ft | 492 kts | 118° |
| 2026-04-27 04:18 | -8.05504 | 113.95389 | 36898 ft | 493 kts | 118° |
| 2026-04-27 04:19 | -8.08959 | 114.01360 | 36893 ft | 493 kts | 118° |
| 2026-04-27 04:19 | -8.12419 | 114.07346 | 36894 ft | 493 kts | 118° |
| 2026-04-27 04:20 | -8.15850 | 114.13291 | 36886 ft | 492 kts | 118° |
| 2026-04-27 04:20 | -8.18719 | 114.18265 | 36887 ft | 492 kts | 118° |
| 2026-04-27 04:21 | -8.22166 | 114.24243 | 36886 ft | 492 kts | 118° |
| 2026-04-27 04:21 | -8.25616 | 114.30230 | 36878 ft | 492 kts | 118° |
| 2026-04-27 04:22 | -8.29042 | 114.36178 | 36879 ft | 492 kts | 118° |
| 2026-04-27 04:22 | -8.32485 | 114.42159 | 36864 ft | 491 kts | 118° |
| 2026-04-27 04:23 | -8.35898 | 114.48087 | 36865 ft | 490 kts | 118° |
| 2026-04-27 04:23 | -8.39327 | 114.54048 | 36862 ft | 490 kts | 118° |
| 2026-04-27 04:24 | -8.42754 | 114.60009 | 36862 ft | 490 kts | 118° |
| 2026-04-27 04:24 | -8.46168 | 114.65947 | 36862 ft | 490 kts | 118° |
| 2026-04-27 04:25 | -8.49593 | 114.71910 | 36862 ft | 490 kts | 118° |
| 2026-04-27 04:25 | -8.52998 | 114.77839 | 36867 ft | 490 kts | 118° |
| 2026-04-27 04:26 | -8.56423 | 114.83806 | 36862 ft | 490 kts | 118° |
| 2026-04-27 04:26 | -8.59851 | 114.89780 | 36860 ft | 490 kts | 118° |
| 2026-04-27 04:27 | -8.63258 | 114.95722 | 36860 ft | 491 kts | 118° |
| 2026-04-27 04:27 | -8.66685 | 115.01700 | 36849 ft | 491 kts | 118° |
| 2026-04-27 04:28 | -8.70100 | 115.07659 | 36856 ft | 491 kts | 118° |
| 2026-04-27 04:28 | -8.73541 | 115.13624 | 36853 ft | 491 kts | 120° |
| 2026-04-27 04:29 | -8.77887 | 115.18942 | 36856 ft | 494 kts | 133° |
| 2026-04-27 04:29 | -8.82885 | 115.23758 | 36855 ft | 495 kts | 135° |
| 2026-04-27 04:30 | -8.87946 | 115.28464 | 36853 ft | 496 kts | 135° |
| 2026-04-27 04:30 | -8.93023 | 115.33192 | 36849 ft | 496 kts | 135° |
| 2026-04-27 04:31 | -8.98059 | 115.37913 | 36845 ft | 497 kts | 135° |
| 2026-04-27 04:31 | -9.03134 | 115.42683 | 36845 ft | 497 kts | 135° |
| 2026-04-27 04:32 | -9.08200 | 115.47449 | 36848 ft | 497 kts | 135° |
| 2026-04-27 04:32 | -9.13239 | 115.52190 | 36845 ft | 497 kts | 135° |
| 2026-04-27 04:33 | -9.18310 | 115.56963 | 36849 ft | 497 kts | 135° |
| 2026-04-27 04:33 | -9.23386 | 115.61742 | 36847 ft | 497 kts | 135° |
| 2026-04-27 04:34 | -9.28460 | 115.66521 | 36848 ft | 498 kts | 135° |
| 2026-04-27 04:34 | -9.33512 | 115.71281 | 36848 ft | 498 kts | 135° |
| 2026-04-27 04:35 | -9.38568 | 115.76047 | 36848 ft | 498 kts | 135° |
| 2026-04-27 04:35 | -9.43651 | 115.80840 | 36848 ft | 498 kts | 135° |
| 2026-04-27 04:36 | -9.48726 | 115.85628 | 36848 ft | 498 kts | 135° |
| 2026-04-27 04:36 | -9.53806 | 115.90424 | 36854 ft | 498 kts | 135° |
| 2026-04-27 04:37 | -9.58879 | 115.95215 | 36848 ft | 500 kts | 135° |
| 2026-04-27 04:37 | -9.63979 | 116.00032 | 36851 ft | 501 kts | 135° |
| 2026-04-27 04:38 | -9.69052 | 116.04826 | 36850 ft | 501 kts | 135° |
| 2026-04-27 04:38 | -9.74163 | 116.09658 | 36851 ft | 501 kts | 135° |
| 2026-04-27 04:39 | -9.79233 | 116.14454 | 36851 ft | 501 kts | 135° |
| 2026-04-27 04:39 | -9.84343 | 116.19290 | 36851 ft | 501 kts | 135° |
| 2026-04-27 04:40 | -9.89441 | 116.24116 | 36848 ft | 501 kts | 135° |
| 2026-04-27 04:40 | -9.94536 | 116.28943 | 36848 ft | 501 kts | 135° |
| 2026-04-27 04:41 | -9.99611 | 116.33752 | 36848 ft | 502 kts | 135° |
| 2026-04-27 04:41 | -10.04719 | 116.38593 | 36847 ft | 502 kts | 135° |
| 2026-04-27 04:42 | -10.09841 | 116.43450 | 36849 ft | 502 kts | 135° |
| 2026-04-27 04:42 | -10.14919 | 116.48269 | 36858 ft | 503 kts | 135° |
| 2026-04-27 04:43 | -10.20048 | 116.53137 | 36852 ft | 505 kts | 135° |
| 2026-04-27 04:43 | -10.25180 | 116.58011 | 36850 ft | 505 kts | 135° |
| 2026-04-27 04:44 | -10.30300 | 116.62877 | 36854 ft | 507 kts | 136° |
| 2026-04-27 04:44 | -10.35463 | 116.67784 | 36854 ft | 508 kts | 135° |
| 2026-04-27 04:45 | -10.40605 | 116.72675 | 36854 ft | 509 kts | 135° |
| 2026-04-27 04:45 | -10.45795 | 116.77613 | 36855 ft | 509 kts | 135° |
| 2026-04-27 04:46 | -10.50938 | 116.82509 | 36854 ft | 508 kts | 135° |
| 2026-04-27 04:46 | -10.56106 | 116.87432 | 36857 ft | 508 kts | 136° |
| 2026-04-27 04:47 | -10.61236 | 116.92320 | 36857 ft | 508 kts | 135° |
| 2026-04-27 04:47 | -10.66398 | 116.97241 | 36860 ft | 509 kts | 135° |
| 2026-04-27 04:48 | -10.71568 | 117.02172 | 36860 ft | 509 kts | 135° |
| 2026-04-27 04:48 | -10.76709 | 117.07079 | 36858 ft | 507 kts | 135° |
| 2026-04-27 04:49 | -10.81879 | 117.12016 | 36859 ft | 510 kts | 135° |
| 2026-04-27 04:49 | -10.87041 | 117.16946 | 36859 ft | 511 kts | 135° |
| 2026-04-27 04:50 | -10.92225 | 117.21901 | 36856 ft | 510 kts | 135° |
| 2026-04-27 04:50 | -10.97407 | 117.26856 | 36857 ft | 511 kts | 135° |
| 2026-04-27 04:51 | -11.02563 | 117.31789 | 36856 ft | 510 kts | 135° |
| 2026-04-27 04:51 | -11.07739 | 117.36743 | 36856 ft | 510 kts | 135° |
| 2026-04-27 04:52 | -11.12926 | 117.41710 | 36857 ft | 512 kts | 135° |
| 2026-04-27 04:52 | -11.18128 | 117.46694 | 36856 ft | 512 kts | 135° |
| 2026-04-27 04:53 | -11.23281 | 117.51635 | 36858 ft | 512 kts | 136° |
| 2026-04-27 04:53 | -11.28495 | 117.56635 | 36864 ft | 513 kts | 136° |
| 2026-04-27 04:54 | -11.33669 | 117.61602 | 36862 ft | 511 kts | 136° |
| 2026-04-27 04:54 | -11.38849 | 117.66575 | 36864 ft | 512 kts | 136° |
| 2026-04-27 04:55 | -11.44052 | 117.71572 | 36864 ft | 513 kts | 136° |
| 2026-04-27 04:55 | -11.49219 | 117.76539 | 36864 ft | 512 kts | 136° |
| 2026-04-27 04:56 | -11.54405 | 117.81525 | 36865 ft | 511 kts | 136° |
| 2026-04-27 04:56 | -11.59552 | 117.86478 | 36867 ft | 511 kts | 136° |
| 2026-04-27 04:57 | -11.64718 | 117.91451 | 36867 ft | 513 kts | 136° |
| 2026-04-27 04:57 | -11.69927 | 117.96469 | 36867 ft | 514 kts | 136° |
| 2026-04-27 04:58 | -11.75126 | 118.01479 | 36870 ft | 513 kts | 136° |
| 2026-04-27 04:58 | -11.80295 | 118.06463 | 36873 ft | 514 kts | 136° |
| 2026-04-27 04:59 | -11.85515 | 118.11499 | 36870 ft | 516 kts | 136° |
| 2026-04-27 04:59 | -11.90739 | 118.16542 | 36871 ft | 515 kts | 136° |
| 2026-04-27 05:00 | -11.95912 | 118.21540 | 36875 ft | 514 kts | 136° |
| 2026-04-27 05:00 | -12.01099 | 118.26554 | 36871 ft | 513 kts | 136° |
| 2026-04-27 05:01 | -12.06281 | 118.31566 | 36875 ft | 515 kts | 136° |
| 2026-04-27 05:01 | -12.11474 | 118.36588 | 36872 ft | 512 kts | 136° |
| 2026-04-27 05:02 | -12.16661 | 118.41608 | 36874 ft | 513 kts | 136° |
| 2026-04-27 05:03 | -12.24384 | 118.49089 | 36872 ft | 511 kts | 136° |
| 2026-04-27 05:03 | -12.29575 | 118.54121 | 36877 ft | 514 kts | 136° |
| 2026-04-27 05:04 | -12.34720 | 118.59113 | 36872 ft | 511 kts | 136° |
| 2026-04-27 05:04 | -12.39908 | 118.64148 | 36875 ft | 513 kts | 136° |
| 2026-04-27 05:05 | -12.45104 | 118.69194 | 36881 ft | 516 kts | 136° |
| 2026-04-27 05:05 | -12.50286 | 118.74230 | 36882 ft | 515 kts | 136° |
| 2026-04-27 05:06 | -12.55465 | 118.79266 | 36880 ft | 511 kts | 136° |
| 2026-04-27 05:06 | -12.60607 | 118.84267 | 36884 ft | 514 kts | 136° |
| 2026-04-27 05:07 | -12.64933 | 118.88477 | 36883 ft | 513 kts | 136° |
| 2026-04-27 05:07 | -12.70074 | 118.93483 | 36878 ft | 509 kts | 136° |
| 2026-04-27 05:08 | -12.76061 | 118.99317 | 36884 ft | 511 kts | 136° |
| 2026-04-27 05:08 | -12.80342 | 119.03492 | 36881 ft | 511 kts | 136° |
| 2026-04-27 05:09 | -12.85532 | 119.08555 | 36881 ft | 512 kts | 136° |
| 2026-04-27 05:09 | -12.90683 | 119.13583 | 36881 ft | 512 kts | 136° |
| 2026-04-27 05:10 | -12.95825 | 119.18605 | 36879 ft | 513 kts | 136° |
| 2026-04-27 05:10 | -13.01002 | 119.23665 | 36881 ft | 515 kts | 136° |
| 2026-04-27 05:11 | -13.06183 | 119.28731 | 36875 ft | 511 kts | 136° |
| 2026-04-27 05:11 | -13.11305 | 119.33743 | 36876 ft | 511 kts | 136° |
| 2026-04-27 05:12 | -13.16474 | 119.38805 | 36878 ft | 513 kts | 136° |
| 2026-04-27 05:12 | -13.21624 | 119.43850 | 36882 ft | 510 kts | 136° |
| 2026-04-27 05:13 | -13.26736 | 119.48861 | 36879 ft | 509 kts | 136° |
| 2026-04-27 05:13 | -13.31885 | 119.53911 | 36884 ft | 513 kts | 136° |
| 2026-04-27 05:14 | -13.37001 | 119.58933 | 36877 ft | 509 kts | 136° |
| 2026-04-27 05:14 | -13.42126 | 119.63967 | 36882 ft | 511 kts | 136° |
| 2026-04-27 05:15 | -13.47275 | 119.69026 | 36886 ft | 513 kts | 136° |
| 2026-04-27 05:15 | -13.52431 | 119.74096 | 36883 ft | 512 kts | 136° |
| 2026-04-27 05:16 | -13.57527 | 119.79111 | 36883 ft | 509 kts | 136° |
| 2026-04-27 05:16 | -13.62670 | 119.84175 | 36889 ft | 511 kts | 136° |
| 2026-04-27 05:17 | -13.67780 | 119.89210 | 36890 ft | 507 kts | 137° |
| 2026-04-27 05:17 | -13.72851 | 119.94208 | 36885 ft | 508 kts | 136° |
| 2026-04-27 05:18 | -13.77951 | 119.99239 | 36886 ft | 510 kts | 137° |
| 2026-04-27 05:18 | -13.83081 | 120.04303 | 36886 ft | 509 kts | 136° |
| 2026-04-27 05:19 | -13.88163 | 120.09322 | 36884 ft | 509 kts | 137° |
| 2026-04-27 05:19 | -13.93300 | 120.14399 | 36886 ft | 511 kts | 137° |
| 2026-04-27 05:20 | -13.98428 | 120.19471 | 36893 ft | 510 kts | 137° |
| 2026-04-27 05:20 | -14.03515 | 120.24506 | 36888 ft | 508 kts | 137° |
| 2026-04-27 05:21 | -14.08640 | 120.29580 | 36887 ft | 510 kts | 137° |
| 2026-04-27 05:21 | -14.13707 | 120.34601 | 36889 ft | 507 kts | 137° |
| 2026-04-27 05:22 | -14.18807 | 120.39659 | 36891 ft | 508 kts | 137° |
| 2026-04-27 05:22 | -14.23908 | 120.44721 | 36889 ft | 509 kts | 137° |
| 2026-04-27 05:23 | -14.28987 | 120.49762 | 36884 ft | 508 kts | 137° |
| 2026-04-27 05:23 | -14.34065 | 120.54808 | 36890 ft | 508 kts | 137° |
| 2026-04-27 05:24 | -14.39174 | 120.59888 | 36889 ft | 509 kts | 137° |
| 2026-04-27 05:24 | -14.44272 | 120.64958 | 36892 ft | 508 kts | 137° |
| 2026-04-27 05:25 | -14.49341 | 120.70005 | 36889 ft | 509 kts | 137° |
| 2026-04-27 05:25 | -14.54447 | 120.75092 | 36892 ft | 509 kts | 137° |
| 2026-04-27 05:26 | -14.59523 | 120.80152 | 36893 ft | 509 kts | 137° |
| 2026-04-27 05:26 | -14.64628 | 120.85245 | 36892 ft | 509 kts | 137° |
| 2026-04-27 05:27 | -14.69700 | 120.90308 | 36895 ft | 509 kts | 137° |
| 2026-04-27 05:27 | -14.74798 | 120.95400 | 36898 ft | 509 kts | 137° |
| 2026-04-27 05:28 | -14.79904 | 121.00504 | 36895 ft | 509 kts | 137° |
| 2026-04-27 05:28 | -14.84969 | 121.05570 | 36895 ft | 509 kts | 137° |
| 2026-04-27 05:29 | -14.90077 | 121.10683 | 36892 ft | 509 kts | 137° |
| 2026-04-27 05:29 | -14.95160 | 121.15775 | 36894 ft | 509 kts | 137° |
| 2026-04-27 05:30 | -15.00223 | 121.20850 | 36896 ft | 509 kts | 137° |
| 2026-04-27 05:30 | -15.05333 | 121.25976 | 36895 ft | 510 kts | 137° |
| 2026-04-27 05:31 | -15.10434 | 121.31096 | 36895 ft | 509 kts | 137° |
| 2026-04-27 05:31 | -15.15492 | 121.36177 | 36893 ft | 509 kts | 137° |
| 2026-04-27 05:32 | -15.20577 | 121.41288 | 36892 ft | 509 kts | 137° |
| 2026-04-27 05:32 | -15.25676 | 121.46417 | 36892 ft | 509 kts | 137° |
| 2026-04-27 05:33 | -15.30740 | 121.51515 | 36894 ft | 510 kts | 137° |
| 2026-04-27 05:33 | -15.35840 | 121.56652 | 36893 ft | 511 kts | 137° |
| 2026-04-27 05:34 | -15.40930 | 121.61783 | 36893 ft | 510 kts | 137° |
| 2026-04-27 05:34 | -15.46028 | 121.66926 | 36892 ft | 510 kts | 137° |
| 2026-04-27 05:35 | -15.51090 | 121.72036 | 36893 ft | 510 kts | 137° |
| 2026-04-27 05:35 | -15.56184 | 121.77183 | 36891 ft | 510 kts | 137° |
| 2026-04-27 05:36 | -15.61278 | 121.82332 | 36891 ft | 510 kts | 137° |
| 2026-04-27 05:36 | -15.66337 | 121.87451 | 36893 ft | 509 kts | 137° |
| 2026-04-27 05:37 | -15.71424 | 121.92601 | 36890 ft | 509 kts | 137° |
| 2026-04-27 05:37 | -15.76481 | 121.97725 | 36892 ft | 509 kts | 137° |
| 2026-04-27 05:38 | -15.81556 | 122.02871 | 36893 ft | 510 kts | 137° |
| 2026-04-27 05:38 | -15.86616 | 122.08006 | 36894 ft | 511 kts | 137° |
| 2026-04-27 05:39 | -15.91702 | 122.13171 | 36890 ft | 510 kts | 137° |
| 2026-04-27 05:39 | -15.96782 | 122.18333 | 36888 ft | 510 kts | 137° |
| 2026-04-27 05:40 | -16.01869 | 122.23506 | 36887 ft | 510 kts | 137° |
| 2026-04-27 05:40 | -16.06922 | 122.28649 | 36891 ft | 511 kts | 137° |
| 2026-04-27 05:41 | -16.12011 | 122.33832 | 36890 ft | 511 kts | 137° |
| 2026-04-27 05:41 | -16.17077 | 122.38996 | 36889 ft | 511 kts | 137° |
| 2026-04-27 05:42 | -16.22157 | 122.44178 | 36890 ft | 511 kts | 137° |
| 2026-04-27 05:42 | -16.27216 | 122.49343 | 36889 ft | 511 kts | 137° |
| 2026-04-27 05:43 | -16.32301 | 122.54537 | 36894 ft | 512 kts | 137° |
| 2026-04-27 05:43 | -16.37359 | 122.59708 | 36893 ft | 512 kts | 137° |
| 2026-04-27 05:44 | -16.42449 | 122.64917 | 36894 ft | 512 kts | 137° |
| 2026-04-27 05:44 | -16.47516 | 122.70106 | 36879 ft | 512 kts | 137° |
| 2026-04-27 05:45 | -16.52615 | 122.75331 | 36873 ft | 512 kts | 137° |
| 2026-04-27 05:45 | -16.57665 | 122.80510 | 36876 ft | 512 kts | 137° |
| 2026-04-27 05:46 | -16.62761 | 122.85741 | 36893 ft | 512 kts | 137° |
| 2026-04-27 05:46 | -16.67826 | 122.90943 | 36896 ft | 512 kts | 137° |
| 2026-04-27 05:47 | -16.72886 | 122.96145 | 36896 ft | 512 kts | 137° |
| 2026-04-27 05:47 | -16.77976 | 123.01382 | 36880 ft | 512 kts | 137° |
| 2026-04-27 05:48 | -16.83023 | 123.06579 | 36883 ft | 512 kts | 137° |
| 2026-04-27 05:48 | -16.88113 | 123.11823 | 36881 ft | 512 kts | 137° |
| 2026-04-27 05:49 | -16.93165 | 123.17034 | 36884 ft | 512 kts | 137° |
| 2026-04-27 05:49 | -16.98247 | 123.22279 | 36883 ft | 512 kts | 137° |
| 2026-04-27 05:50 | -17.03288 | 123.27486 | 36882 ft | 512 kts | 137° |
| 2026-04-27 05:50 | -17.08358 | 123.32727 | 36881 ft | 511 kts | 137° |
| 2026-04-27 05:51 | -17.13415 | 123.37960 | 36876 ft | 511 kts | 137° |
| 2026-04-27 05:51 | -17.18447 | 123.43169 | 36877 ft | 511 kts | 137° |
| 2026-04-27 05:52 | -17.23485 | 123.48390 | 36873 ft | 511 kts | 137° |
| 2026-04-27 05:52 | -17.28541 | 123.53634 | 36875 ft | 511 kts | 137° |
| 2026-04-27 05:53 | -17.33592 | 123.58877 | 36868 ft | 511 kts | 137° |
| 2026-04-27 05:53 | -17.38613 | 123.64093 | 36869 ft | 510 kts | 137° |
| 2026-04-27 05:54 | -17.43660 | 123.69339 | 36865 ft | 510 kts | 137° |
| 2026-04-27 05:54 | -17.47862 | 123.73712 | 36864 ft | 510 kts | 137° |
| 2026-04-27 05:55 | -17.53721 | 123.79813 | 36866 ft | 510 kts | 138° |
| 2026-04-27 05:55 | -17.57885 | 123.84215 | 36854 ft | 511 kts | 134° |
| 2026-04-27 05:56 | -17.62225 | 123.90119 | 36855 ft | 514 kts | 128° |
| 2026-04-27 05:56 | -17.66372 | 123.96253 | 36858 ft | 514 kts | 127° |
| 2026-04-27 05:57 | -17.70442 | 124.02361 | 36857 ft | 513 kts | 127° |
| 2026-04-27 05:57 | -17.74549 | 124.08509 | 36855 ft | 513 kts | 127° |
| 2026-04-27 05:58 | -17.78642 | 124.14621 | 36863 ft | 514 kts | 127° |
| 2026-04-27 05:58 | -17.82767 | 124.20779 | 36860 ft | 515 kts | 127° |
| 2026-04-27 05:59 | -17.86890 | 124.26940 | 36863 ft | 514 kts | 127° |
| 2026-04-27 05:59 | -17.90983 | 124.33062 | 36862 ft | 514 kts | 127° |
| 2026-04-27 06:00 | -17.97156 | 124.42307 | 36863 ft | 514 kts | 127° |
| 2026-04-27 06:00 | -18.01244 | 124.48437 | 36867 ft | 514 kts | 127° |
| 2026-04-27 06:01 | -18.05347 | 124.54596 | 36865 ft | 513 kts | 127° |
| 2026-04-27 06:01 | -18.09447 | 124.60755 | 36864 ft | 513 kts | 127° |
| 2026-04-27 06:02 | -18.13520 | 124.66879 | 36864 ft | 513 kts | 127° |
| 2026-04-27 06:02 | -18.17604 | 124.73027 | 36863 ft | 513 kts | 127° |
| 2026-04-27 06:03 | -18.21700 | 124.79198 | 36868 ft | 513 kts | 127° |
| 2026-04-27 06:03 | -18.25782 | 124.85352 | 36871 ft | 514 kts | 127° |
| 2026-04-27 06:04 | -18.29871 | 124.91525 | 36869 ft | 514 kts | 127° |
| 2026-04-27 06:04 | -18.33934 | 124.97664 | 36869 ft | 513 kts | 127° |
| 2026-04-27 06:05 | -18.38007 | 125.03824 | 36871 ft | 513 kts | 127° |
| 2026-04-27 06:05 | -18.42083 | 125.09994 | 36875 ft | 513 kts | 128° |
| 2026-04-27 06:06 | -18.46165 | 125.16179 | 36879 ft | 513 kts | 127° |
| 2026-04-27 06:06 | -18.50242 | 125.22362 | 36874 ft | 514 kts | 127° |
| 2026-04-27 06:07 | -18.54294 | 125.28514 | 36877 ft | 513 kts | 127° |
| 2026-04-27 06:07 | -18.58370 | 125.34708 | 36879 ft | 512 kts | 127° |
| 2026-04-27 06:08 | -18.62412 | 125.40857 | 36886 ft | 512 kts | 128° |
| 2026-04-27 06:08 | -18.66495 | 125.47072 | 36876 ft | 513 kts | 128° |
| 2026-04-27 06:09 | -18.70540 | 125.53238 | 36882 ft | 513 kts | 128° |
| 2026-04-27 06:09 | -18.74600 | 125.59431 | 36886 ft | 512 kts | 128° |
| 2026-04-27 06:10 | -18.78656 | 125.65626 | 36879 ft | 512 kts | 128° |
| 2026-04-27 06:10 | -18.82684 | 125.71782 | 36882 ft | 512 kts | 128° |
| 2026-04-27 06:11 | -18.86736 | 125.77983 | 36887 ft | 512 kts | 128° |
| 2026-04-27 06:11 | -18.90784 | 125.84182 | 36885 ft | 512 kts | 128° |
| 2026-04-27 06:12 | -18.94832 | 125.90389 | 36878 ft | 512 kts | 128° |
| 2026-04-27 06:12 | -18.98851 | 125.96556 | 36894 ft | 512 kts | 128° |
| 2026-04-27 06:13 | -19.02898 | 126.02773 | 36892 ft | 512 kts | 128° |
| 2026-04-27 06:13 | -19.06920 | 126.08958 | 36897 ft | 513 kts | 128° |
| 2026-04-27 06:14 | -19.10968 | 126.15189 | 36897 ft | 513 kts | 128° |
| 2026-04-27 06:14 | -19.15013 | 126.21421 | 36887 ft | 513 kts | 128° |
| 2026-04-27 06:15 | -19.19026 | 126.27610 | 36902 ft | 513 kts | 128° |
| 2026-04-27 06:15 | -19.23070 | 126.33854 | 36898 ft | 512 kts | 128° |
| 2026-04-27 06:16 | -19.27075 | 126.40045 | 36903 ft | 513 kts | 128° |
| 2026-04-27 06:16 | -19.31111 | 126.46287 | 36905 ft | 513 kts | 128° |
| 2026-04-27 06:17 | -19.35141 | 126.52527 | 36906 ft | 513 kts | 128° |
| 2026-04-27 06:17 | -19.39140 | 126.58729 | 36904 ft | 512 kts | 128° |
| 2026-04-27 06:18 | -19.43168 | 126.64979 | 37099 ft | 511 kts | 128° |
| 2026-04-27 06:18 | -19.45170 | 126.68096 | 37461 ft | 510 kts | 128° |
| 2026-04-27 06:18 | -19.47139 | 126.71164 | 37739 ft | 509 kts | 128° |
| 2026-04-27 06:19 | -19.49127 | 126.74261 | 38025 ft | 508 kts | 128° |
| 2026-04-27 06:19 | -19.51118 | 126.77363 | 38352 ft | 505 kts | 128° |
| 2026-04-27 06:19 | -19.53092 | 126.80443 | 38662 ft | 503 kts | 128° |
| 2026-04-27 06:19 | -19.55063 | 126.83517 | 38849 ft | 503 kts | 128° |
| 2026-04-27 06:20 | -19.58991 | 126.89644 | 38912 ft | 506 kts | 128° |
| 2026-04-27 06:20 | -19.62951 | 126.95834 | 38910 ft | 506 kts | 128° |
| 2026-04-27 06:21 | -19.66911 | 127.02029 | 38913 ft | 506 kts | 129° |
| 2026-04-27 06:21 | -19.70837 | 127.08178 | 38917 ft | 506 kts | 129° |
| 2026-04-27 06:22 | -19.74794 | 127.14382 | 38917 ft | 506 kts | 129° |
| 2026-04-27 06:22 | -19.78743 | 127.20579 | 38916 ft | 506 kts | 128° |
| 2026-04-27 06:23 | -19.82695 | 127.26786 | 38920 ft | 506 kts | 128° |
| 2026-04-27 06:23 | -19.86618 | 127.32957 | 38920 ft | 506 kts | 129° |
| 2026-04-27 06:24 | -19.90565 | 127.39169 | 38920 ft | 507 kts | 129° |
| 2026-04-27 06:24 | -19.94485 | 127.45347 | 38922 ft | 507 kts | 129° |
| 2026-04-27 06:25 | -19.98426 | 127.51565 | 38922 ft | 506 kts | 129° |
| 2026-04-27 06:25 | -20.02359 | 127.57776 | 38922 ft | 506 kts | 129° |
| 2026-04-27 06:26 | -20.06271 | 127.63959 | 38925 ft | 506 kts | 129° |
| 2026-04-27 06:26 | -20.10214 | 127.70199 | 38928 ft | 506 kts | 129° |
| 2026-04-27 06:27 | -20.14121 | 127.76388 | 38928 ft | 504 kts | 129° |
| 2026-04-27 06:27 | -20.18031 | 127.82589 | 38930 ft | 504 kts | 128° |
| 2026-04-27 06:28 | -20.21916 | 127.88757 | 38940 ft | 504 kts | 129° |
| 2026-04-27 06:28 | -20.25831 | 127.94978 | 38944 ft | 505 kts | 129° |
| 2026-04-27 06:29 | -20.29744 | 128.01202 | 38945 ft | 504 kts | 129° |
| 2026-04-27 06:29 | -20.33620 | 128.07377 | 38928 ft | 504 kts | 129° |
| 2026-04-27 06:30 | -20.37513 | 128.13584 | 38945 ft | 503 kts | 129° |
| 2026-04-27 06:30 | -20.41413 | 128.19808 | 38947 ft | 504 kts | 129° |
| 2026-04-27 06:31 | -20.45308 | 128.26030 | 38942 ft | 504 kts | 129° |
| 2026-04-27 06:31 | -20.49180 | 128.32222 | 38944 ft | 504 kts | 129° |
| 2026-04-27 06:32 | -20.53058 | 128.38432 | 38945 ft | 504 kts | 129° |
| 2026-04-27 06:32 | -20.56965 | 128.44694 | 38945 ft | 504 kts | 129° |
| 2026-04-27 06:33 | -20.60842 | 128.50916 | 38951 ft | 505 kts | 129° |
| 2026-04-27 06:33 | -20.64718 | 128.57140 | 38949 ft | 506 kts | 129° |
| 2026-04-27 06:34 | -20.68612 | 128.63403 | 38953 ft | 506 kts | 129° |
| 2026-04-27 06:34 | -20.72504 | 128.69670 | 38952 ft | 505 kts | 129° |
| 2026-04-27 06:35 | -20.76391 | 128.75934 | 38951 ft | 505 kts | 129° |
| 2026-04-27 06:35 | -20.80254 | 128.82166 | 38955 ft | 506 kts | 129° |
| 2026-04-27 06:36 | -20.84147 | 128.88452 | 38951 ft | 506 kts | 129° |
| 2026-04-27 06:36 | -20.88033 | 128.94738 | 38953 ft | 505 kts | 129° |
| 2026-04-27 06:37 | -20.91894 | 129.00989 | 38951 ft | 505 kts | 129° |
| 2026-04-27 06:37 | -20.95753 | 129.07241 | 38957 ft | 505 kts | 129° |
| 2026-04-27 06:38 | -20.99627 | 129.13525 | 38956 ft | 506 kts | 129° |
| 2026-04-27 06:38 | -21.03496 | 129.19811 | 38958 ft | 505 kts | 129° |
| 2026-04-27 06:39 | -21.07346 | 129.26070 | 38955 ft | 505 kts | 129° |
| 2026-04-27 06:39 | -21.11208 | 129.32356 | 38960 ft | 505 kts | 129° |
| 2026-04-27 06:40 | -21.14421 | 129.37592 | 38966 ft | 504 kts | 130° |
| 2026-04-27 06:40 | -21.18893 | 129.44888 | 38961 ft | 503 kts | 130° |
| 2026-04-27 06:41 | -21.22089 | 129.50106 | 38963 ft | 503 kts | 130° |
| 2026-04-27 06:41 | -21.25941 | 129.56402 | 38962 ft | 503 kts | 130° |
| 2026-04-27 06:42 | -21.29750 | 129.62638 | 38963 ft | 502 kts | 130° |
| 2026-04-27 06:42 | -21.33579 | 129.68912 | 38963 ft | 502 kts | 130° |
| 2026-04-27 06:43 | -21.37412 | 129.75197 | 38965 ft | 502 kts | 130° |
| 2026-04-27 06:43 | -21.41213 | 129.81438 | 38968 ft | 502 kts | 130° |
| 2026-04-27 06:44 | -21.45031 | 129.87717 | 38967 ft | 501 kts | 130° |
| 2026-04-27 06:44 | -21.48844 | 129.93992 | 38982 ft | 501 kts | 130° |
| 2026-04-27 06:45 | -21.52630 | 130.00230 | 38973 ft | 501 kts | 130° |
| 2026-04-27 06:45 | -21.56445 | 130.06524 | 38977 ft | 500 kts | 130° |
| 2026-04-27 06:46 | -21.60220 | 130.12760 | 38977 ft | 500 kts | 130° |
| 2026-04-27 06:46 | -21.64013 | 130.19030 | 38975 ft | 500 kts | 130° |
| 2026-04-27 06:47 | -21.67805 | 130.25307 | 38972 ft | 500 kts | 130° |
| 2026-04-27 06:47 | -21.71594 | 130.31587 | 38974 ft | 499 kts | 130° |
| 2026-04-27 06:48 | -21.75357 | 130.37830 | 38972 ft | 499 kts | 130° |
| 2026-04-27 06:48 | -21.79132 | 130.44098 | 38991 ft | 499 kts | 130° |
| 2026-04-27 06:49 | -21.82880 | 130.50331 | 38985 ft | 498 kts | 130° |
| 2026-04-27 06:49 | -21.86652 | 130.56611 | 38986 ft | 498 kts | 130° |
| 2026-04-27 06:50 | -21.90398 | 130.62856 | 38988 ft | 498 kts | 130° |
| 2026-04-27 06:50 | -21.94158 | 130.69130 | 38991 ft | 498 kts | 130° |
| 2026-04-27 06:51 | -21.97922 | 130.75421 | 38989 ft | 498 kts | 130° |
| 2026-04-27 06:51 | -22.01654 | 130.81663 | 38991 ft | 498 kts | 130° |
| 2026-04-27 06:52 | -22.05418 | 130.87966 | 38991 ft | 499 kts | 130° |
| 2026-04-27 06:52 | -22.09178 | 130.94273 | 38997 ft | 499 kts | 130° |
| 2026-04-27 06:53 | -22.12914 | 131.00545 | 38999 ft | 498 kts | 130° |
| 2026-04-27 06:53 | -22.16668 | 131.06857 | 39002 ft | 499 kts | 130° |
| 2026-04-27 06:54 | -22.20407 | 131.13147 | 39005 ft | 499 kts | 130° |
| 2026-04-27 06:54 | -22.24137 | 131.19433 | 39006 ft | 498 kts | 130° |
| 2026-04-27 06:55 | -22.27878 | 131.25744 | 39007 ft | 498 kts | 130° |
| 2026-04-27 06:55 | -22.31597 | 131.32026 | 39007 ft | 498 kts | 130° |
| 2026-04-27 06:56 | -22.35329 | 131.38338 | 39012 ft | 498 kts | 130° |
| 2026-04-27 06:56 | -22.39045 | 131.44628 | 39013 ft | 497 kts | 130° |
| 2026-04-27 06:57 | -22.42767 | 131.50935 | 39013 ft | 497 kts | 130° |
| 2026-04-27 06:57 | -22.46479 | 131.57234 | 39019 ft | 497 kts | 130° |
| 2026-04-27 06:58 | -22.52039 | 131.66682 | 39015 ft | 497 kts | 130° |
| 2026-04-27 06:59 | -22.55745 | 131.72990 | 39015 ft | 497 kts | 130° |
| 2026-04-27 06:59 | -22.59461 | 131.79322 | 39021 ft | 497 kts | 130° |
| 2026-04-27 07:00 | -22.63135 | 131.85592 | 39018 ft | 496 kts | 130° |
| 2026-04-27 07:00 | -22.66835 | 131.91912 | 39023 ft | 496 kts | 130° |
| 2026-04-27 07:01 | -22.70511 | 131.98199 | 39023 ft | 496 kts | 130° |
| 2026-04-27 07:01 | -22.74202 | 132.04519 | 39020 ft | 495 kts | 130° |
| 2026-04-27 07:02 | -22.77884 | 132.10832 | 39024 ft | 495 kts | 130° |
| 2026-04-27 07:02 | -22.81543 | 132.17112 | 39022 ft | 494 kts | 130° |
| 2026-04-27 07:03 | -22.85222 | 132.23433 | 39027 ft | 494 kts | 130° |
| 2026-04-27 07:03 | -22.88878 | 132.29725 | 39029 ft | 494 kts | 130° |
| 2026-04-27 07:04 | -22.92526 | 132.36009 | 39028 ft | 494 kts | 130° |
| 2026-04-27 07:04 | -22.96190 | 132.42329 | 39043 ft | 494 kts | 130° |
| 2026-04-27 07:05 | -22.99852 | 132.48651 | 39028 ft | 494 kts | 130° |
| 2026-04-27 07:05 | -23.03508 | 132.54974 | 39031 ft | 494 kts | 130° |
| 2026-04-27 07:06 | -23.07143 | 132.61266 | 39034 ft | 494 kts | 130° |
| 2026-04-27 07:06 | -23.10807 | 132.67615 | 39036 ft | 495 kts | 130° |
| 2026-04-27 07:07 | -23.14437 | 132.73916 | 39042 ft | 495 kts | 130° |
| 2026-04-27 07:07 | -23.18100 | 132.80283 | 39042 ft | 495 kts | 130° |
| 2026-04-27 07:08 | -23.21742 | 132.86619 | 39046 ft | 495 kts | 129° |
| 2026-04-27 07:08 | -23.25372 | 132.92943 | 39056 ft | 495 kts | 129° |
| 2026-04-27 07:09 | -23.29025 | 132.99313 | 39048 ft | 495 kts | 129° |
| 2026-04-27 07:09 | -23.32669 | 133.05675 | 39056 ft | 495 kts | 129° |
| 2026-04-27 07:10 | -23.36291 | 133.12009 | 39053 ft | 495 kts | 129° |
| 2026-04-27 07:10 | -23.39932 | 133.18383 | 39059 ft | 495 kts | 129° |
| 2026-04-27 07:11 | -23.43559 | 133.24741 | 39068 ft | 495 kts | 129° |
| 2026-04-27 07:11 | -23.47196 | 133.31124 | 39064 ft | 495 kts | 129° |
| 2026-04-27 07:12 | -23.50825 | 133.37501 | 39060 ft | 495 kts | 129° |
| 2026-04-27 07:12 | -23.54429 | 133.43841 | 39064 ft | 495 kts | 129° |
| 2026-04-27 07:13 | -23.58048 | 133.50220 | 39068 ft | 493 kts | 129° |
| 2026-04-27 07:13 | -23.61636 | 133.56550 | 39068 ft | 493 kts | 129° |
| 2026-04-27 07:14 | -23.65247 | 133.62926 | 39072 ft | 492 kts | 129° |
| 2026-04-27 07:14 | -23.68849 | 133.69296 | 39094 ft | 491 kts | 129° |
| 2026-04-27 07:15 | -23.72423 | 133.75625 | 39096 ft | 491 kts | 129° |
| 2026-04-27 07:15 | -23.76010 | 133.81985 | 39103 ft | 491 kts | 129° |
| 2026-04-27 07:16 | -23.79690 | 133.88180 | 39106 ft | 483 kts | 136° |
| 2026-04-27 07:16 | -23.83890 | 133.93896 | 39107 ft | 481 kts | 137° |
| 2026-04-27 07:17 | -23.88147 | 133.99488 | 39099 ft | 480 kts | 137° |
| 2026-04-27 07:17 | -23.92439 | 134.05103 | 39074 ft | 480 kts | 137° |
| 2026-04-27 07:18 | -23.96725 | 134.10734 | 39068 ft | 480 kts | 137° |
| 2026-04-27 07:18 | -24.00979 | 134.16343 | 39071 ft | 480 kts | 137° |
| 2026-04-27 07:19 | -24.05226 | 134.21950 | 39070 ft | 480 kts | 137° |
| 2026-04-27 07:19 | -24.09487 | 134.27585 | 39067 ft | 480 kts | 137° |
| 2026-04-27 07:20 | -24.13714 | 134.33181 | 39065 ft | 479 kts | 137° |
| 2026-04-27 07:20 | -24.17964 | 134.38811 | 39058 ft | 479 kts | 137° |
| 2026-04-27 07:21 | -24.22216 | 134.44451 | 39062 ft | 479 kts | 137° |
| 2026-04-27 07:21 | -24.26467 | 134.50097 | 39081 ft | 479 kts | 137° |
| 2026-04-27 07:22 | -24.30681 | 134.55700 | 39066 ft | 478 kts | 137° |
| 2026-04-27 07:22 | -24.34921 | 134.61344 | 39066 ft | 479 kts | 137° |
| 2026-04-27 07:23 | -24.39155 | 134.66988 | 39060 ft | 478 kts | 137° |
| 2026-04-27 07:23 | -24.43357 | 134.72593 | 39062 ft | 477 kts | 137° |
| 2026-04-27 07:24 | -24.47581 | 134.78233 | 39060 ft | 477 kts | 137° |
| 2026-04-27 07:24 | -24.51799 | 134.83873 | 39062 ft | 477 kts | 137° |
| 2026-04-27 07:25 | -24.55988 | 134.89480 | 39062 ft | 477 kts | 137° |
| 2026-04-27 07:25 | -24.60199 | 134.95125 | 39073 ft | 477 kts | 137° |
| 2026-04-27 07:26 | -24.64380 | 135.00737 | 39086 ft | 476 kts | 137° |
| 2026-04-27 07:26 | -24.68576 | 135.06378 | 39061 ft | 475 kts | 137° |
| 2026-04-27 07:27 | -24.72736 | 135.11972 | 39062 ft | 474 kts | 137° |
| 2026-04-27 07:27 | -24.76914 | 135.17596 | 39062 ft | 474 kts | 137° |
| 2026-04-27 07:28 | -24.81074 | 135.23204 | 39061 ft | 474 kts | 137° |
| 2026-04-27 07:28 | -24.85255 | 135.28848 | 39062 ft | 474 kts | 137° |
| 2026-04-27 07:29 | -24.88720 | 135.33530 | 39061 ft | 474 kts | 137° |
| 2026-04-27 07:29 | -24.93583 | 135.40108 | 39066 ft | 474 kts | 137° |
| 2026-04-27 07:30 | -24.97042 | 135.44794 | 39066 ft | 474 kts | 137° |
| 2026-04-27 07:30 | -25.01209 | 135.50445 | 39064 ft | 473 kts | 137° |
| 2026-04-27 07:31 | -25.05364 | 135.56086 | 39064 ft | 473 kts | 137° |
| 2026-04-27 07:31 | -25.09489 | 135.61691 | 39062 ft | 473 kts | 137° |
| 2026-04-27 07:32 | -25.13640 | 135.67340 | 39059 ft | 473 kts | 137° |
| 2026-04-27 07:32 | -25.17761 | 135.72955 | 39064 ft | 473 kts | 137° |
| 2026-04-27 07:33 | -25.21907 | 135.78610 | 39078 ft | 473 kts | 136° |
| 2026-04-27 07:33 | -25.26046 | 135.84261 | 39064 ft | 472 kts | 136° |
| 2026-04-27 07:34 | -25.30152 | 135.89877 | 39062 ft | 472 kts | 136° |
| 2026-04-27 07:34 | -25.34284 | 135.95535 | 39064 ft | 472 kts | 136° |
| 2026-04-27 07:35 | -25.38409 | 136.01187 | 39070 ft | 471 kts | 136° |
| 2026-04-27 07:35 | -25.42497 | 136.06798 | 39067 ft | 471 kts | 136° |
| 2026-04-27 07:36 | -25.46615 | 136.12456 | 39067 ft | 471 kts | 136° |
| 2026-04-27 07:36 | -25.50724 | 136.18108 | 39077 ft | 471 kts | 136° |
| 2026-04-27 07:37 | -25.54827 | 136.23761 | 39064 ft | 469 kts | 136° |
| 2026-04-27 07:37 | -25.58896 | 136.29372 | 39063 ft | 469 kts | 136° |
| 2026-04-27 07:38 | -25.62991 | 136.35024 | 39064 ft | 469 kts | 136° |
| 2026-04-27 07:38 | -25.67063 | 136.40652 | 39066 ft | 468 kts | 136° |
| 2026-04-27 07:39 | -25.71151 | 136.46310 | 39062 ft | 468 kts | 136° |
| 2026-04-27 07:39 | -25.75219 | 136.51947 | 39065 ft | 468 kts | 136° |
| 2026-04-27 07:40 | -25.79268 | 136.57563 | 39081 ft | 468 kts | 136° |
| 2026-04-27 07:40 | -25.83343 | 136.63222 | 39067 ft | 469 kts | 136° |
| 2026-04-27 07:41 | -25.87391 | 136.68852 | 39072 ft | 469 kts | 135° |
| 2026-04-27 07:41 | -25.91459 | 136.74520 | 39066 ft | 469 kts | 135° |
| 2026-04-27 07:42 | -25.95518 | 136.80179 | 39067 ft | 471 kts | 134° |
| 2026-04-27 07:42 | -25.99626 | 136.85911 | 39067 ft | 473 kts | 134° |
| 2026-04-27 07:43 | -26.03703 | 136.91615 | 39064 ft | 474 kts | 134° |
| 2026-04-27 07:43 | -26.07816 | 136.97374 | 39067 ft | 473 kts | 134° |
| 2026-04-27 07:44 | -26.11901 | 137.03097 | 39067 ft | 476 kts | 134° |
| 2026-04-27 07:44 | -26.16022 | 137.08881 | 39067 ft | 477 kts | 134° |
| 2026-04-27 07:45 | -26.20149 | 137.14683 | 39069 ft | 477 kts | 134° |
| 2026-04-27 07:45 | -26.24270 | 137.20481 | 39070 ft | 477 kts | 134° |
| 2026-04-27 07:46 | -26.28369 | 137.26257 | 39072 ft | 477 kts | 134° |
| 2026-04-27 07:46 | -26.32495 | 137.32078 | 39072 ft | 477 kts | 134° |
| 2026-04-27 07:47 | -26.36608 | 137.37886 | 39070 ft | 477 kts | 133° |
| 2026-04-27 07:47 | -26.40703 | 137.43674 | 39071 ft | 479 kts | 133° |
| 2026-04-27 07:48 | -26.44844 | 137.49537 | 39072 ft | 480 kts | 133° |
| 2026-04-27 07:48 | -26.48985 | 137.55410 | 39071 ft | 480 kts | 133° |
| 2026-04-27 07:49 | -26.53093 | 137.61242 | 39075 ft | 481 kts | 132° |
| 2026-04-27 07:49 | -26.57244 | 137.67141 | 39077 ft | 483 kts | 132° |
| 2026-04-27 07:50 | -26.61374 | 137.73021 | 39075 ft | 483 kts | 132° |
| 2026-04-27 07:50 | -26.65526 | 137.78941 | 39076 ft | 483 kts | 131° |
| 2026-04-27 07:51 | -26.69683 | 137.84871 | 39079 ft | 484 kts | 131° |
| 2026-04-27 07:51 | -26.73820 | 137.90785 | 39081 ft | 484 kts | 131° |
| 2026-04-27 07:52 | -26.77975 | 137.96732 | 39084 ft | 484 kts | 131° |
| 2026-04-27 07:52 | -26.82134 | 138.02690 | 39085 ft | 485 kts | 131° |
| 2026-04-27 07:53 | -26.86272 | 138.08627 | 39080 ft | 485 kts | 130° |
| 2026-04-27 07:53 | -26.90425 | 138.14596 | 39078 ft | 485 kts | 130° |
| 2026-04-27 07:54 | -26.94557 | 138.20541 | 39078 ft | 485 kts | 130° |
| 2026-04-27 07:54 | -26.98712 | 138.26528 | 39078 ft | 486 kts | 130° |
| 2026-04-27 07:55 | -27.02835 | 138.32477 | 39085 ft | 486 kts | 130° |
| 2026-04-27 07:55 | -27.06988 | 138.38478 | 39081 ft | 486 kts | 130° |
| 2026-04-27 07:56 | -27.11113 | 138.44445 | 39090 ft | 486 kts | 130° |
| 2026-04-27 07:56 | -27.15262 | 138.50457 | 39082 ft | 486 kts | 130° |
| 2026-04-27 07:57 | -27.19403 | 138.56464 | 39084 ft | 486 kts | 130° |
| 2026-04-27 07:57 | -27.23519 | 138.62443 | 39086 ft | 486 kts | 130° |
| 2026-04-27 07:58 | -27.27656 | 138.68462 | 39093 ft | 486 kts | 130° |
| 2026-04-27 07:58 | -27.31773 | 138.74459 | 39089 ft | 485 kts | 130° |
| 2026-04-27 07:59 | -27.35903 | 138.80483 | 39088 ft | 485 kts | 130° |
| 2026-04-27 07:59 | -27.42065 | 138.89486 | 39097 ft | 485 kts | 130° |
| 2026-04-27 08:00 | -27.46188 | 138.95521 | 39099 ft | 485 kts | 130° |
| 2026-04-27 08:00 | -27.50284 | 139.01525 | 39102 ft | 485 kts | 130° |